METAR Data
IDs: Format: Raw Decoded Include TAF

Data at: 0122 UTC 24 May 2019

NZCH 240100Z AUTO 04005KT 360V060 9999 NCD 12/09 Q1021 NOSIG
NZCH 240030Z AUTO 02004KT 340V050 9999 FEW005/// 12/10 Q1021 NOSIG
NZCH 240000Z AUTO 03003KT 9999 BKN005/// 11/10 Q1022 BECMG CAVOK
NZCH 232330Z AUTO 03004KT 360V070 9999 BKN005/// 11/11 Q1022 BECMG CAVOK
NZCH 232300Z AUTO 01005KT 7000 OVC004/// 10/10 Q1023 BECMG CAVOK
NZCH 232230Z AUTO 02004KT 9999 OVC005/// 09/09 Q1023 BECMG NSC

TAF NZCH 232308Z 2400/2500 03010KT 9999 BKN004
  BECMG 2400/2401 CAVOK
  BECMG 2406/2408 30005KT
  BECMG 2408/2410 0500 FG
  BECMG 2420/2422 CAVOK
  BECMG 2422/2500 04010KT